GMAG

Goulimime

Goulimime, Morocco
METAR GMAG 181400Z 36016KT 9999 FEW016 17/05 Q1017 NOSIG
Observed Flight Rules
Jan-18 @ 14:00 UTC (37 minutes ago) Visual Flight Rules
Wind Visibility Clouds
360° at 16 knots 10,000+ meters
  • Few at 1,600' AGL
Temperatures Readings
Current 17°C / 63°F
Dewpoint 5°C / 41°F
Humidity 45%
Altimeter 30.03" Hg
Pressure 1016.92 hPa
Elevation 333
METAR GMAG 181400Z 36016KT 9999 FEW016 17/05 Q1017 NOSIG
Observed Flight Rules
Jan-18 @ 14:00 UTC
(37 minutes ago)
VFR
Wind Visibility
360° at 16 knots 10,000+ meters
Clouds
  • Few at 1,600' AGL
Temperature Dewpoint
17°C / 63°F 5°C / 41°F
Humidity Altimeter Pressure
45% 30.03" Hg 1016.92 hPa